createdAt,value
2022-10-25T00:00:19.149Z,18.20
2022-10-25T00:02:46.060Z,18.20
2022-10-25T00:05:15.296Z,18.20
2022-10-25T00:07:42.122Z,18.10
2022-10-25T00:10:09.564Z,18.10
2022-10-25T00:12:42.555Z,18.10
2022-10-25T00:15:10.521Z,18.10
2022-10-25T00:17:37.364Z,18.00
2022-10-25T00:20:05.754Z,18.10
2022-10-25T00:22:32.611Z,18.10
2022-10-25T00:24:59.338Z,18.10
2022-10-25T00:27:26.195Z,18.20
2022-10-25T00:29:53.888Z,18.20
2022-10-25T00:32:20.831Z,18.30
2022-10-25T00:34:47.780Z,18.30
2022-10-25T00:37:14.608Z,18.40
2022-10-25T00:39:41.347Z,18.50
2022-10-25T00:42:11.401Z,18.50
2022-10-25T00:44:41.218Z,18.50
2022-10-25T00:47:21.515Z,18.50
2022-10-25T00:50:00.896Z,18.50
2022-10-25T00:52:31.521Z,18.50
2022-10-25T00:54:59.757Z,18.60
2022-10-25T00:57:53.810Z,18.70
2022-10-25T01:00:21.198Z,18.70
2022-10-25T01:02:48.448Z,18.70
2022-10-25T01:05:17.366Z,18.70
2022-10-25T01:07:44.976Z,18.70
2022-10-25T01:10:12.215Z,18.70
2022-10-25T01:12:38.932Z,18.70
2022-10-25T01:15:06.402Z,18.70
2022-10-25T01:17:38.822Z,18.80
2022-10-25T01:20:22.799Z,18.80
2022-10-25T01:22:57.528Z,18.80
2022-10-25T01:26:02.079Z,18.80
2022-10-25T01:28:53.352Z,18.80
2022-10-25T01:31:35.082Z,18.80
2022-10-25T01:34:23.358Z,18.70
2022-10-25T01:37:06.134Z,18.70
2022-10-25T01:39:35.063Z,18.70
2022-10-25T01:42:12.797Z,18.70
2022-10-25T01:45:10.391Z,18.70
2022-10-25T01:48:00.257Z,18.70
2022-10-25T01:50:33.526Z,18.70
2022-10-25T01:53:00.320Z,18.80
2022-10-25T01:55:38.019Z,18.80
2022-10-25T01:58:31.475Z,18.80
2022-10-25T02:01:21.967Z,18.80
2022-10-25T02:04:13.775Z,18.80
2022-10-25T02:07:02.061Z,18.80
2022-10-25T02:09:36.178Z,18.80
2022-10-25T02:12:06.530Z,18.80
2022-10-25T02:14:39.991Z,18.80
2022-10-25T02:17:19.394Z,18.80
2022-10-25T02:19:51.165Z,18.80
2022-10-25T02:22:21.598Z,18.80
2022-10-25T02:24:51.055Z,18.80
2022-10-25T02:27:20.392Z,18.80
2022-10-25T02:29:48.341Z,18.80
2022-10-25T02:32:15.134Z,18.80
2022-10-25T02:34:42.138Z,18.80
2022-10-25T02:37:09.636Z,18.80
2022-10-25T02:39:36.640Z,18.90
2022-10-25T02:42:03.483Z,18.80
2022-10-25T02:44:30.385Z,18.80
2022-10-25T02:46:57.492Z,18.80
2022-10-25T02:49:24.251Z,18.80
2022-10-25T02:54:18.867Z,18.70
2022-10-25T02:56:45.569Z,18.70
2022-10-25T02:59:15.470Z,18.70
2022-10-25T03:01:42.274Z,18.70
2022-10-25T03:04:09.119Z,18.70
2022-10-25T03:06:35.830Z,18.70
2022-10-25T03:09:03.825Z,18.70
2022-10-25T03:11:31.001Z,18.70
2022-10-25T03:13:57.660Z,18.80
2022-10-25T03:16:24.418Z,18.80
2022-10-25T03:18:51.134Z,18.80
2022-10-25T03:21:17.973Z,18.80
2022-10-25T03:23:44.840Z,18.80
2022-10-25T03:26:11.603Z,18.80
2022-10-25T03:28:38.334Z,18.90
2022-10-25T03:31:12.423Z,18.80
2022-10-25T03:33:39.348Z,18.70
2022-10-25T03:36:06.548Z,18.70
2022-10-25T03:38:33.543Z,18.70
2022-10-25T03:41:00.419Z,18.70
2022-10-25T03:43:27.349Z,18.80
2022-10-25T03:45:54.171Z,18.70
2022-10-25T03:48:20.935Z,18.80
2022-10-25T03:50:47.792Z,18.80
2022-10-25T03:53:14.657Z,18.80
2022-10-25T03:55:41.459Z,18.80
2022-10-25T03:58:08.237Z,18.80
2022-10-25T04:00:35.021Z,18.80
2022-10-25T04:03:02.885Z,18.80
2022-10-25T04:05:30.966Z,18.80
2022-10-25T04:07:58.437Z,18.80
2022-10-25T04:10:25.605Z,18.80
2022-10-25T04:12:53.883Z,18.80
2022-10-25T04:15:23.726Z,18.80
2022-10-25T04:17:51.133Z,18.80
2022-10-25T04:20:18.844Z,18.80
2022-10-25T04:22:45.571Z,18.80
2022-10-25T04:25:12.375Z,18.80
2022-10-25T04:27:39.516Z,18.80
2022-10-25T04:30:06.703Z,18.80
2022-10-25T04:32:33.433Z,18.80
2022-10-25T04:35:00.222Z,18.80
2022-10-25T04:37:26.973Z,18.80
2022-10-25T04:39:53.886Z,18.80
2022-10-25T04:42:20.580Z,18.80
2022-10-25T04:44:47.308Z,18.70
2022-10-25T04:47:14.133Z,18.70
2022-10-25T04:49:40.850Z,18.60
2022-10-25T04:52:07.727Z,18.60
2022-10-25T04:54:34.503Z,18.60
2022-10-25T04:57:01.344Z,18.60
2022-10-25T04:59:28.199Z,18.50
2022-10-25T05:01:54.905Z,18.50
2022-10-25T05:04:21.816Z,18.60
2022-10-25T05:06:48.564Z,18.60
2022-10-25T05:09:15.297Z,18.60
2022-10-25T05:11:42.092Z,18.60
2022-10-25T05:14:08.818Z,18.60
2022-10-25T05:16:35.564Z,18.60
2022-10-25T05:19:02.560Z,18.60
2022-10-25T05:21:31.026Z,18.60
2022-10-25T05:24:01.732Z,18.50
2022-10-25T05:26:29.423Z,18.50
2022-10-25T05:28:56.881Z,18.50
2022-10-25T05:31:26.537Z,18.50
2022-10-25T05:33:55.339Z,18.50
2022-10-25T05:36:23.008Z,18.50
2022-10-25T05:38:49.967Z,18.50
2022-10-25T05:41:17.883Z,18.50
2022-10-25T05:43:45.503Z,18.50
2022-10-25T05:46:21.079Z,18.50
2022-10-25T05:48:49.294Z,18.50
2022-10-25T05:51:34.700Z,18.50
2022-10-25T05:54:05.579Z,18.50
2022-10-25T05:56:33.306Z,18.50
2022-10-25T05:59:09.147Z,18.50
2022-10-25T06:01:38.441Z,18.50
2022-10-25T06:04:05.664Z,18.50
2022-10-25T06:06:32.544Z,18.50
2022-10-25T06:09:00.788Z,18.50
2022-10-25T06:11:29.022Z,18.50
2022-10-25T06:13:55.931Z,18.50
2022-10-25T06:16:23.494Z,18.50
2022-10-25T06:18:50.565Z,18.50
2022-10-25T06:21:23.153Z,18.40
2022-10-25T06:23:50.251Z,18.40
2022-10-25T06:26:20.256Z,18.40
2022-10-25T06:28:47.266Z,18.40
2022-10-25T06:31:18.831Z,18.40
2022-10-25T06:33:46.380Z,18.40
2022-10-25T06:36:19.226Z,18.40
2022-10-25T06:38:47.277Z,18.50
2022-10-25T06:41:19.846Z,18.50
2022-10-25T06:43:47.093Z,18.50
2022-10-25T06:46:24.477Z,18.40
2022-10-25T06:48:53.358Z,18.40
2022-10-25T06:51:21.511Z,18.40
2022-10-25T06:53:52.856Z,18.40
2022-10-25T06:56:19.555Z,18.30
2022-10-25T06:58:46.263Z,18.30
2022-10-25T07:01:15.730Z,18.30
2022-10-25T07:03:42.963Z,18.30
2022-10-25T07:06:12.311Z,18.30
2022-10-25T07:08:41.333Z,18.30
2022-10-25T07:11:12.944Z,18.30
2022-10-25T07:13:39.696Z,18.30
2022-10-25T07:16:08.824Z,18.40
2022-10-25T07:18:36.307Z,18.40
2022-10-25T07:21:08.887Z,18.40
2022-10-25T07:23:41.876Z,18.40
2022-10-25T07:26:15.004Z,18.60
2022-10-25T07:28:44.463Z,18.90
2022-10-25T07:31:23.588Z,19.10
2022-10-25T07:33:51.908Z,19.40
2022-10-25T07:36:19.131Z,19.70
2022-10-25T07:38:46.395Z,20.00
2022-10-25T07:41:13.353Z,20.10
2022-10-25T07:43:40.320Z,20.10
2022-10-25T07:46:07.896Z,19.90
2022-10-25T07:48:35.078Z,19.80
2022-10-25T07:51:07.020Z,19.50
2022-10-25T07:53:33.752Z,19.40
2022-10-25T07:56:00.644Z,19.30
2022-10-25T07:58:27.408Z,19.20
2022-10-25T08:01:04.356Z,19.20
2022-10-25T08:03:31.940Z,19.20
2022-10-25T08:05:59.454Z,19.10
2022-10-25T08:08:26.816Z,19.20
2022-10-25T08:10:53.499Z,19.10
2022-10-25T08:13:20.411Z,19.10
2022-10-25T08:15:52.317Z,19.10
2022-10-25T08:18:19.077Z,19.10
2022-10-25T08:21:03.100Z,19.10
2022-10-25T08:23:31.890Z,19.10
2022-10-25T08:25:59.373Z,19.20
2022-10-25T08:28:26.257Z,19.20
2022-10-25T08:30:55.222Z,19.20
2022-10-25T08:33:22.773Z,19.30
2022-10-25T08:35:49.543Z,19.30
2022-10-25T08:38:16.344Z,19.40
2022-10-25T08:40:55.220Z,19.40
2022-10-25T08:43:22.048Z,19.40
2022-10-25T08:46:04.416Z,19.40
2022-10-25T08:48:35.200Z,19.40
2022-10-25T08:51:10.754Z,19.40
2022-10-25T08:53:48.400Z,19.30
2022-10-25T08:56:18.439Z,19.30
2022-10-25T08:58:54.096Z,19.50
2022-10-25T09:01:26.991Z,19.50
2022-10-25T09:03:54.235Z,19.60
2022-10-25T09:06:31.044Z,19.60
2022-10-25T09:09:09.987Z,19.60
2022-10-25T09:11:51.707Z,19.60
2022-10-25T09:14:36.124Z,19.70
2022-10-25T09:17:48.903Z,19.70
2022-10-25T09:20:21.612Z,19.80
2022-10-25T09:22:56.088Z,19.70
2022-10-25T09:25:29.027Z,19.60
2022-10-25T09:28:03.691Z,19.50
2022-10-25T09:30:37.499Z,19.40
2022-10-25T09:33:10.431Z,19.50
2022-10-25T09:35:58.621Z,19.50
2022-10-25T09:38:46.644Z,19.50
2022-10-25T09:41:28.016Z,19.60
2022-10-25T09:44:34.012Z,19.60
2022-10-25T09:47:20.954Z,19.70
2022-10-25T09:49:56.571Z,19.70
2022-10-25T09:52:40.209Z,19.70
2022-10-25T09:55:26.133Z,19.70
2022-10-25T09:57:53.655Z,19.70
2022-10-25T10:00:20.593Z,19.70
2022-10-25T10:02:47.519Z,19.80
2022-10-25T10:05:21.659Z,19.90
2022-10-25T10:07:50.682Z,20.00
2022-10-25T10:10:27.782Z,20.10
2022-10-25T10:13:18.148Z,20.10
2022-10-25T10:16:05.059Z,20.10
2022-10-25T10:18:35.144Z,20.00
2022-10-25T10:21:11.930Z,20.10
2022-10-25T10:23:41.597Z,20.20
2022-10-25T10:26:17.529Z,20.30
2022-10-25T10:28:46.755Z,20.50
2022-10-25T10:31:13.871Z,20.60
2022-10-25T10:33:47.055Z,20.60
2022-10-25T10:36:29.029Z,20.50
2022-10-25T10:39:20.598Z,20.40
2022-10-25T10:42:14.908Z,20.30
2022-10-25T10:44:59.467Z,20.20
2022-10-25T10:47:30.430Z,20.20
2022-10-25T10:49:57.333Z,20.20
2022-10-25T10:52:31.984Z,20.20
2022-10-25T10:54:59.671Z,20.20
2022-10-25T10:57:32.789Z,20.20
2022-10-25T11:00:01.506Z,20.10
2022-10-25T11:02:41.293Z,20.30
2022-10-25T11:05:26.599Z,20.40
2022-10-25T11:07:55.020Z,20.60
2022-10-25T11:10:29.332Z,20.80
2022-10-25T11:13:06.731Z,20.90
2022-10-25T11:15:41.624Z,21.10
2022-10-25T11:18:10.208Z,21.10
2022-10-25T11:20:52.327Z,21.10
2022-10-25T11:23:49.282Z,21.00
2022-10-25T11:26:25.861Z,21.00
2022-10-25T11:28:58.735Z,21.00
2022-10-25T11:32:02.911Z,20.90
2022-10-25T11:34:35.659Z,20.90
2022-10-25T11:37:31.379Z,21.10
2022-10-25T11:40:11.988Z,21.10
2022-10-25T11:42:59.132Z,21.00
2022-10-25T11:45:50.221Z,20.90
2022-10-25T11:48:25.987Z,20.90
2022-10-25T11:51:41.280Z,20.90
2022-10-25T11:54:13.940Z,21.10
2022-10-25T11:57:01.292Z,21.30
2022-10-25T11:59:43.159Z,21.60
2022-10-25T12:02:49.538Z,21.70
2022-10-25T12:05:40.911Z,21.70
2022-10-25T12:08:29.154Z,21.60
2022-10-25T12:11:06.253Z,21.50
2022-10-25T12:13:38.915Z,21.40
2022-10-25T12:16:11.648Z,21.40
2022-10-25T12:18:43.479Z,21.20
2022-10-25T12:21:17.370Z,21.20
2022-10-25T12:23:50.534Z,21.20
2022-10-25T12:26:28.033Z,21.00
2022-10-25T12:28:59.124Z,21.00
2022-10-25T12:31:29.012Z,21.00
2022-10-25T12:34:10.527Z,20.90
2022-10-25T12:37:04.463Z,20.90
2022-10-25T12:39:42.585Z,20.90
2022-10-25T12:42:33.923Z,21.10
2022-10-25T12:45:27.886Z,21.30
2022-10-25T12:48:02.409Z,21.30
2022-10-25T12:50:53.752Z,21.20
2022-10-25T12:53:44.652Z,21.30
2022-10-25T12:56:51.660Z,21.30
2022-10-25T12:59:38.229Z,21.30
2022-10-25T13:02:32.721Z,21.30
2022-10-25T13:05:28.716Z,21.30
2022-10-25T13:07:58.733Z,21.40
2022-10-25T13:13:04.039Z,21.40
2022-10-25T13:15:51.611Z,21.40
2022-10-25T13:18:42.676Z,21.30
2022-10-25T13:21:56.019Z,21.30
2022-10-25T13:24:39.296Z,21.30
2022-10-25T13:27:15.285Z,21.40
2022-10-25T13:30:07.075Z,21.60
2022-10-25T13:32:35.055Z,21.60
2022-10-25T13:35:03.800Z,21.60
2022-10-25T13:37:34.155Z,21.70
2022-10-25T13:40:21.949Z,21.70
2022-10-25T13:42:58.411Z,21.90
2022-10-25T13:45:40.615Z,22.10
2022-10-25T13:48:13.528Z,22.00
2022-10-25T13:50:53.437Z,22.00
2022-10-25T13:53:33.910Z,21.90
2022-10-25T13:56:23.514Z,21.80
2022-10-25T13:58:53.320Z,21.60
2022-10-25T14:01:21.272Z,21.50
2022-10-25T14:04:19.695Z,21.40
2022-10-25T14:06:46.979Z,21.40
2022-10-25T14:09:28.042Z,21.40
2022-10-25T14:12:11.961Z,21.40
2022-10-25T14:14:51.386Z,21.40
2022-10-25T14:17:41.832Z,21.50
2022-10-25T14:20:23.749Z,21.60
2022-10-25T14:22:54.090Z,21.70
2022-10-25T14:25:29.863Z,21.70
2022-10-25T14:28:26.676Z,21.60
2022-10-25T14:31:05.396Z,21.60
2022-10-25T14:33:53.624Z,21.60
2022-10-25T14:36:28.855Z,21.60
2022-10-25T14:39:04.779Z,21.60
2022-10-25T14:41:34.580Z,21.40
2022-10-25T14:44:02.302Z,21.40
2022-10-25T14:46:30.471Z,21.30
2022-10-25T14:48:58.977Z,21.30
2022-10-25T14:51:30.678Z,21.20
2022-10-25T14:54:12.712Z,21.10
2022-10-25T14:56:44.958Z,21.10
2022-10-25T14:59:50.226Z,21.00
2022-10-25T15:02:25.200Z,20.90
2022-10-25T15:04:55.892Z,20.90
2022-10-25T15:07:24.442Z,20.80
2022-10-25T15:09:53.206Z,20.80
2022-10-25T15:12:24.695Z,20.80
2022-10-25T15:14:57.069Z,20.70
2022-10-25T15:17:29.078Z,20.70
2022-10-25T15:20:25.014Z,20.70
2022-10-25T15:23:00.752Z,20.60
2022-10-25T15:25:31.161Z,20.70
2022-10-25T15:28:12.787Z,20.70
2022-10-25T15:30:49.694Z,20.60
2022-10-25T15:33:22.952Z,20.60
2022-10-25T15:35:59.671Z,20.50
2022-10-25T15:38:42.055Z,20.50
2022-10-25T15:41:15.326Z,20.40
2022-10-25T15:43:42.371Z,20.40
2022-10-25T15:46:34.016Z,20.30
2022-10-25T15:49:04.203Z,20.30
2022-10-25T15:51:33.746Z,20.30
2022-10-25T15:54:00.740Z,20.30
2022-10-25T15:56:27.679Z,20.10
2022-10-25T15:58:54.995Z,20.20
2022-10-25T16:01:21.999Z,20.20
2022-10-25T16:03:48.958Z,20.10
2022-10-25T16:06:15.715Z,20.10
2022-10-25T16:08:42.556Z,20.10
2022-10-25T16:11:16.896Z,20.10
2022-10-25T16:13:45.697Z,20.00
2022-10-25T16:16:43.327Z,20.00
2022-10-25T16:19:14.851Z,19.90
2022-10-25T16:21:41.944Z,19.90
2022-10-25T16:24:08.849Z,19.90
2022-10-25T16:26:42.852Z,19.80
2022-10-25T16:29:21.108Z,19.80
2022-10-25T16:31:48.173Z,19.70
2022-10-25T16:34:17.160Z,19.70
2022-10-25T16:36:44.739Z,19.70
2022-10-25T16:39:12.032Z,19.80
2022-10-25T16:41:40.901Z,19.80
2022-10-25T16:44:09.320Z,19.70
2022-10-25T16:46:36.017Z,19.70
2022-10-25T16:49:04.734Z,19.70
2022-10-25T16:51:34.291Z,19.70
2022-10-25T16:54:01.575Z,19.70
2022-10-25T16:56:28.403Z,19.60
2022-10-25T16:58:55.161Z,19.60
2022-10-25T17:01:27.241Z,19.50
2022-10-25T17:03:54.654Z,19.60
2022-10-25T17:06:40.177Z,19.50
2022-10-25T17:09:07.970Z,19.50
2022-10-25T17:11:36.033Z,19.50
2022-10-25T17:14:03.269Z,19.50
2022-10-25T17:16:30.259Z,19.40
2022-10-25T17:18:57.328Z,19.40
2022-10-25T17:21:24.310Z,19.40
2022-10-25T17:23:51.280Z,19.30
2022-10-25T17:26:18.034Z,19.30
2022-10-25T17:28:44.954Z,19.30
2022-10-25T17:31:13.875Z,19.30
2022-10-25T17:33:41.785Z,19.30
2022-10-25T17:36:08.839Z,19.20
2022-10-25T17:38:35.669Z,19.20
2022-10-25T17:41:02.632Z,19.20
2022-10-25T17:43:29.379Z,19.10
2022-10-25T17:46:03.902Z,19.10
2022-10-25T17:48:31.293Z,19.10
2022-10-25T17:51:07.147Z,19.00
2022-10-25T17:53:34.082Z,19.00
2022-10-25T17:56:12.852Z,18.90
2022-10-25T17:58:44.283Z,18.90
2022-10-25T18:01:12.878Z,18.90
2022-10-25T18:03:39.715Z,18.90
2022-10-25T18:06:08.988Z,18.80
2022-10-25T18:08:39.167Z,18.70
2022-10-25T18:11:09.786Z,18.80
2022-10-25T18:13:38.261Z,18.70
2022-10-25T18:18:38.929Z,18.70
2022-10-25T18:21:06.633Z,18.60
2022-10-25T18:23:33.938Z,18.60
2022-10-25T18:26:01.730Z,18.70
2022-10-25T18:28:28.779Z,18.60
2022-10-25T18:31:00.015Z,18.60
2022-10-25T18:33:29.060Z,18.60
2022-10-25T18:36:00.478Z,18.50
2022-10-25T18:38:27.855Z,18.50
2022-10-25T18:40:55.049Z,18.40
2022-10-25T18:43:23.313Z,18.40
2022-10-25T18:45:50.494Z,18.50
2022-10-25T18:48:17.212Z,18.50
2022-10-25T18:50:44.244Z,18.50
2022-10-25T18:53:10.978Z,18.40
2022-10-25T18:55:38.043Z,18.40
2022-10-25T18:58:04.795Z,18.40
2022-10-25T19:00:31.607Z,18.40
2022-10-25T19:02:58.424Z,18.40
2022-10-25T19:05:29.963Z,18.40
2022-10-25T19:07:57.091Z,18.40
2022-10-25T19:10:24.048Z,18.30
2022-10-25T19:12:51.247Z,18.30
2022-10-25T19:15:18.094Z,18.30
2022-10-25T19:17:45.015Z,18.20
2022-10-25T19:20:11.919Z,18.20
2022-10-25T19:22:38.817Z,18.20
2022-10-25T19:25:05.913Z,18.20
2022-10-25T19:27:32.628Z,18.20
2022-10-25T19:29:59.357Z,18.20
2022-10-25T19:32:26.191Z,18.20
2022-10-25T19:34:52.932Z,18.20
2022-10-25T19:37:19.888Z,18.20
2022-10-25T19:39:46.737Z,18.20
2022-10-25T19:42:13.945Z,18.20
2022-10-25T19:44:40.861Z,18.10
2022-10-25T19:47:07.608Z,18.10
2022-10-25T19:49:34.449Z,18.10
2022-10-25T19:52:01.147Z,18.10
2022-10-25T19:54:28.004Z,18.00
2022-10-25T19:56:55.409Z,18.00
2022-10-25T19:59:22.289Z,17.90
2022-10-25T20:01:49.241Z,17.90
2022-10-25T20:04:16.131Z,17.90
2022-10-25T20:06:42.906Z,17.80
2022-10-25T20:09:10.276Z,17.80
2022-10-25T20:11:37.135Z,17.70
2022-10-25T20:14:04.702Z,17.70
2022-10-25T20:16:32.246Z,17.60
2022-10-25T20:19:00.848Z,17.60
2022-10-25T20:21:32.177Z,17.50
2022-10-25T20:24:01.825Z,17.50
2022-10-25T20:26:30.954Z,17.50
2022-10-25T20:29:00.966Z,17.40
2022-10-25T20:31:30.256Z,17.30
2022-10-25T20:33:57.459Z,17.30
2022-10-25T20:36:24.813Z,17.30
2022-10-25T20:38:51.884Z,17.20
2022-10-25T20:41:21.234Z,17.20
2022-10-25T20:43:50.156Z,17.20
2022-10-25T20:46:17.084Z,17.20
2022-10-25T20:48:45.257Z,17.10
2022-10-25T20:51:15.434Z,17.10
2022-10-25T20:53:44.155Z,17.10
2022-10-25T20:56:14.887Z,17.00
2022-10-25T20:58:42.133Z,17.00
2022-10-25T21:01:09.616Z,16.90
2022-10-25T21:03:36.768Z,16.90
2022-10-25T21:06:06.367Z,16.90
2022-10-25T21:08:33.898Z,16.80
2022-10-25T21:11:02.560Z,16.80
2022-10-25T21:13:31.480Z,16.80
2022-10-25T21:15:58.414Z,16.70
2022-10-25T21:18:28.861Z,16.80
2022-10-25T21:21:01.632Z,16.70
2022-10-25T21:23:28.397Z,16.70
2022-10-25T21:26:06.830Z,16.70
2022-10-25T21:28:36.208Z,16.60
2022-10-25T21:31:04.183Z,16.60
2022-10-25T21:33:31.038Z,16.60
2022-10-25T21:36:09.324Z,16.60
2022-10-25T21:38:36.488Z,16.50
2022-10-25T21:41:29.970Z,16.50
2022-10-25T21:43:57.492Z,16.50
2022-10-25T21:46:26.364Z,16.50
2022-10-25T21:48:54.004Z,16.50
2022-10-25T21:51:22.428Z,16.40
2022-10-25T21:53:49.203Z,16.40
2022-10-25T21:56:18.025Z,16.40
2022-10-25T21:58:46.291Z,16.40
2022-10-25T22:01:15.516Z,16.40
2022-10-25T22:03:42.324Z,16.40
2022-10-25T22:06:11.257Z,16.30
2022-10-25T22:08:38.599Z,16.30
2022-10-25T22:11:12.821Z,16.30
2022-10-25T22:13:39.983Z,16.30
2022-10-25T22:16:13.208Z,16.30
2022-10-25T22:18:40.714Z,16.20
2022-10-25T22:21:10.204Z,16.20
2022-10-25T22:23:39.639Z,16.20
2022-10-25T22:26:09.437Z,16.20
2022-10-25T22:28:39.983Z,16.10
2022-10-25T22:31:16.110Z,16.10
2022-10-25T22:33:44.304Z,16.10
2022-10-25T22:36:14.209Z,16.10
2022-10-25T22:38:41.252Z,16.00
2022-10-25T22:41:11.136Z,16.00
2022-10-25T22:43:38.851Z,16.00
2022-10-25T22:46:08.271Z,16.00
2022-10-25T22:48:37.683Z,15.90
2022-10-25T22:51:05.126Z,15.90
2022-10-25T22:53:32.153Z,15.90
2022-10-25T22:56:04.767Z,15.90
2022-10-25T22:58:32.704Z,15.80
2022-10-25T23:01:13.934Z,15.80
2022-10-25T23:03:43.172Z,15.80
2022-10-25T23:06:15.554Z,15.80
2022-10-25T23:08:42.712Z,15.70
2022-10-25T23:11:15.469Z,15.70
2022-10-25T23:13:42.720Z,15.70
2022-10-25T23:16:10.994Z,15.70
2022-10-25T23:18:38.516Z,15.70
2022-10-25T23:21:09.972Z,15.60
2022-10-25T23:23:38.712Z,15.70
2022-10-25T23:28:38.912Z,15.60
2022-10-25T23:31:07.460Z,15.60
2022-10-25T23:33:34.595Z,15.60
2022-10-25T23:36:03.403Z,15.50
2022-10-25T23:38:30.817Z,15.60
2022-10-25T23:40:57.698Z,15.50
2022-10-25T23:43:24.395Z,15.50
2022-10-25T23:45:51.168Z,15.50
2022-10-25T23:48:17.868Z,15.50
2022-10-25T23:50:44.625Z,15.50
2022-10-25T23:53:11.369Z,15.50
2022-10-25T23:55:40.807Z,15.50
2022-10-25T23:58:07.535Z,15.50
